createdAt,value
2019-01-19T00:01:15.260Z,48.53
2019-01-19T00:04:21.592Z,50.93
2019-01-19T00:07:38.241Z,50.00
2019-01-19T00:10:32.149Z,48.70
2019-01-19T00:13:29.576Z,49.33
2019-01-19T00:16:10.750Z,53.53
2019-01-19T00:19:13.764Z,52.93
2019-01-19T00:21:57.111Z,52.53
2019-01-19T00:24:36.626Z,52.33
2019-01-19T00:27:31.720Z,52.77
2019-01-19T00:30:35.469Z,49.73
2019-01-19T00:33:28.024Z,50.20
2019-01-19T00:36:06.893Z,46.47
2019-01-19T00:38:56.649Z,48.33
2019-01-19T00:42:02.651Z,44.50
2019-01-19T00:44:56.986Z,42.13
2019-01-19T00:48:25.463Z,38.87
2019-01-19T00:51:42.617Z,35.63
2019-01-19T00:54:19.637Z,36.33
2019-01-19T00:57:26.299Z,33.47
2019-01-19T01:00:00.315Z,31.30
2019-01-19T01:02:42.140Z,33.23
2019-01-19T01:05:50.099Z,32.87
2019-01-19T01:09:12.496Z,32.37
2019-01-19T01:11:54.647Z,34.33
2019-01-19T01:15:00.676Z,33.73
2019-01-19T01:17:50.897Z,33.50
2019-01-19T01:20:52.741Z,33.27
2019-01-19T01:24:12.256Z,34.90
2019-01-19T01:27:13.414Z,34.17
2019-01-19T01:30:29.642Z,35.13
2019-01-19T01:33:43.280Z,32.60
2019-01-19T01:36:49.620Z,34.60
2019-01-19T01:39:52.291Z,33.10
2019-01-19T01:42:51.919Z,32.33
2019-01-19T01:46:14.304Z,33.83
2019-01-19T01:49:29.740Z,34.07
2019-01-19T01:52:11.679Z,30.67
2019-01-19T01:54:56.487Z,29.03
2019-01-19T01:57:30.579Z,25.37
2019-01-19T02:00:48.559Z,24.50
2019-01-19T02:04:01.775Z,24.60
2019-01-19T02:07:30.177Z,23.57
2019-01-19T02:10:49.409Z,22.13
2019-01-19T02:14:05.701Z,22.20
2019-01-19T02:17:05.900Z,23.60
2019-01-19T02:20:34.308Z,21.20
2019-01-19T02:23:35.801Z,24.47
2019-01-19T02:26:51.226Z,22.70
2019-01-19T02:30:04.692Z,21.77
2019-01-19T02:33:07.137Z,23.00
2019-01-19T02:36:18.463Z,27.13
2019-01-19T02:39:18.948Z,25.83
2019-01-19T02:42:18.516Z,24.43
2019-01-19T02:45:28.770Z,24.40
2019-01-19T02:48:24.703Z,23.90
2019-01-19T02:51:06.097Z,24.20
2019-01-19T02:54:11.011Z,25.90
2019-01-19T02:57:22.888Z,23.47
2019-01-19T03:00:25.470Z,24.17
2019-01-19T03:03:21.845Z,24.43
2019-01-19T03:06:10.599Z,22.53
2019-01-19T03:09:27.255Z,24.53
2019-01-19T03:12:40.275Z,26.07
2019-01-19T03:16:02.193Z,27.23
2019-01-19T03:18:58.260Z,27.17
2019-01-19T03:21:56.567Z,24.23
2019-01-19T03:25:02.648Z,24.47
2019-01-19T03:28:01.881Z,23.77
2019-01-19T03:31:10.454Z,25.27
2019-01-19T03:34:02.524Z,23.53
2019-01-19T03:37:00.053Z,26.40
2019-01-19T03:39:40.751Z,27.53
2019-01-19T03:42:53.094Z,27.80
2019-01-19T03:46:04.065Z,30.80
2019-01-19T03:49:15.705Z,27.87
2019-01-19T03:52:07.465Z,29.70
2019-01-19T03:55:26.427Z,30.60
2019-01-19T03:58:20.435Z,30.07
2019-01-19T04:01:32.060Z,32.73
2019-01-19T04:05:03.485Z,33.47
2019-01-19T04:08:16.596Z,31.50
2019-01-19T04:11:41.938Z,32.23
2019-01-19T04:14:53.001Z,31.37
2019-01-19T04:17:58.837Z,30.63
2019-01-19T04:20:53.605Z,33.13
2019-01-19T04:23:23.348Z,32.17
2019-01-19T04:25:59.934Z,31.20
2019-01-19T04:28:29.840Z,32.83
2019-01-19T04:30:59.340Z,34.07
2019-01-19T04:33:28.925Z,31.27
2019-01-19T04:35:58.869Z,32.60
2019-01-19T04:38:28.328Z,33.53
2019-01-19T04:40:58.223Z,31.30
2019-01-19T04:43:27.747Z,33.90
2019-01-19T04:45:57.133Z,34.33
2019-01-19T04:48:26.688Z,33.63
2019-01-19T04:50:56.128Z,32.37
2019-01-19T04:53:25.566Z,32.20
2019-01-19T04:55:55.098Z,33.97
2019-01-19T04:58:24.637Z,35.03
2019-01-19T05:00:54.029Z,31.27
2019-01-19T05:03:23.449Z,35.70
2019-01-19T05:05:53.242Z,33.77
2019-01-19T05:08:22.712Z,35.17
2019-01-19T05:10:52.202Z,35.27
2019-01-19T05:13:21.639Z,34.93
2019-01-19T05:15:51.145Z,38.23
2019-01-19T05:18:20.709Z,37.83
2019-01-19T05:20:51.911Z,36.70
2019-01-19T05:23:21.364Z,36.67
2019-01-19T05:25:50.851Z,42.30
2019-01-19T05:28:20.306Z,40.10
2019-01-19T05:30:49.798Z,41.53
2019-01-19T05:33:19.282Z,41.97
2019-01-19T05:35:48.693Z,40.77
2019-01-19T05:38:18.206Z,41.60
2019-01-19T05:40:47.696Z,38.33
2019-01-19T05:43:18.209Z,41.47
2019-01-19T05:45:47.619Z,39.63
2019-01-19T05:48:17.027Z,37.70
2019-01-19T05:50:46.585Z,40.43
2019-01-19T05:53:16.066Z,45.23
2019-01-19T05:55:45.541Z,41.37
2019-01-19T05:58:15.154Z,45.43
2019-01-19T06:00:44.840Z,45.67
2019-01-19T06:03:14.365Z,42.43
2019-01-19T06:05:44.000Z,42.63
2019-01-19T06:08:13.518Z,44.13
2019-01-19T06:10:42.947Z,45.17
2019-01-19T06:13:12.385Z,42.60
2019-01-19T06:15:42.069Z,55.17
2019-01-19T06:18:14.524Z,47.87
2019-01-19T06:20:43.961Z,44.87
2019-01-19T06:23:13.494Z,43.63
2019-01-19T06:25:43.047Z,45.23
2019-01-19T06:28:12.667Z,41.37
2019-01-19T06:30:42.067Z,40.27
2019-01-19T06:33:11.543Z,41.20
2019-01-19T06:35:41.076Z,40.13
2019-01-19T06:38:10.571Z,40.43
2019-01-19T06:40:40.053Z,43.17
2019-01-19T06:43:09.723Z,43.17
2019-01-19T06:45:39.598Z,43.97
2019-01-19T06:48:09.012Z,51.83
2019-01-19T06:50:38.575Z,66.20
2019-01-19T06:53:08.085Z,66.00
2019-01-19T06:55:37.937Z,51.83
2019-01-19T06:58:07.882Z,47.10
2019-01-19T07:00:37.381Z,50.43
2019-01-19T07:03:06.976Z,45.67
2019-01-19T07:05:36.470Z,45.40
2019-01-19T07:08:06.072Z,45.33
2019-01-19T07:10:35.805Z,43.80
2019-01-19T07:13:05.602Z,45.27
2019-01-19T07:15:35.080Z,46.40
2019-01-19T07:18:04.596Z,46.23
2019-01-19T07:20:34.142Z,50.63
2019-01-19T07:23:03.636Z,51.20
2019-01-19T07:25:33.183Z,51.67
2019-01-19T07:28:02.647Z,58.73
2019-01-19T07:30:32.242Z,54.93
2019-01-19T07:33:01.782Z,56.87
2019-01-19T07:35:31.205Z,61.17
2019-01-19T07:38:00.636Z,59.87
2019-01-19T07:40:30.164Z,58.87
2019-01-19T07:43:03.434Z,55.60
2019-01-19T07:45:32.854Z,57.40
2019-01-19T07:48:02.468Z,58.23
2019-01-19T07:50:32.191Z,53.70
2019-01-19T07:53:01.674Z,49.03
2019-01-19T07:55:31.191Z,49.50
2019-01-19T07:58:00.795Z,49.73
2019-01-19T08:00:31.882Z,51.53
2019-01-19T08:03:03.278Z,57.10
2019-01-19T08:05:32.994Z,60.67
2019-01-19T08:08:03.531Z,57.93
2019-01-19T08:10:32.925Z,55.83
2019-01-19T08:13:02.401Z,58.07
2019-01-19T08:15:31.888Z,65.30
2019-01-19T08:18:01.382Z,66.13
2019-01-19T08:20:30.991Z,68.33
2019-01-19T08:23:00.403Z,66.03
2019-01-19T08:25:29.942Z,68.53
2019-01-19T08:27:59.640Z,68.67
2019-01-19T08:30:31.550Z,62.27
2019-01-19T08:33:00.998Z,59.67
2019-01-19T08:35:31.916Z,55.03
2019-01-19T08:38:01.400Z,51.73
2019-01-19T08:40:33.357Z,53.30
2019-01-19T08:43:19.419Z,48.43
2019-01-19T08:45:48.927Z,51.97
2019-01-19T08:48:18.501Z,52.50
2019-01-19T08:50:48.029Z,54.30
2019-01-19T08:53:17.551Z,51.80
2019-01-19T08:55:46.931Z,52.37
2019-01-19T08:58:16.591Z,53.33
2019-01-19T09:00:46.083Z,52.93
2019-01-19T09:03:15.575Z,53.33
2019-01-19T09:05:47.062Z,55.33
2019-01-19T09:08:16.675Z,55.97
2019-01-19T09:10:46.201Z,54.07
2019-01-19T09:13:15.761Z,63.87
2019-01-19T09:15:46.106Z,67.33
2019-01-19T09:18:15.563Z,68.63
2019-01-19T09:20:45.424Z,71.00
2019-01-19T09:23:23.940Z,73.37
2019-01-19T09:25:53.733Z,72.17
2019-01-19T09:28:23.324Z,71.77
2019-01-19T09:30:53.053Z,71.17
2019-01-19T09:33:23.137Z,75.40
2019-01-19T09:35:52.671Z,73.87
2019-01-19T09:38:22.759Z,75.60
2019-01-19T09:40:52.309Z,71.37
2019-01-19T09:43:21.709Z,61.93
2019-01-19T09:45:51.213Z,53.23
2019-01-19T09:48:20.746Z,47.17
2019-01-19T09:50:50.267Z,44.70
2019-01-19T09:53:19.665Z,46.40
2019-01-19T09:55:49.424Z,47.77
2019-01-19T09:58:18.915Z,45.03
2019-01-19T10:00:48.324Z,43.70
2019-01-19T10:03:17.741Z,43.60
2019-01-19T10:05:47.256Z,42.33
2019-01-19T10:08:16.732Z,39.47
2019-01-19T10:10:46.475Z,42.67
2019-01-19T10:13:15.884Z,41.30
2019-01-19T10:15:45.376Z,43.77
2019-01-19T10:18:15.071Z,46.33
2019-01-19T10:20:44.465Z,45.53
2019-01-19T10:23:13.883Z,43.87
2019-01-19T10:25:43.789Z,44.40
2019-01-19T10:28:13.489Z,46.80
2019-01-19T10:30:42.868Z,43.47
2019-01-19T10:33:13.413Z,44.43
2019-01-19T10:35:42.899Z,45.70
2019-01-19T10:38:12.414Z,51.23
2019-01-19T10:40:41.860Z,50.97
2019-01-19T10:43:12.586Z,49.97
2019-01-19T10:45:42.054Z,48.53
2019-01-19T10:48:11.522Z,47.13
2019-01-19T10:50:41.022Z,50.13
2019-01-19T10:53:10.461Z,51.43
2019-01-19T10:55:39.885Z,49.10
2019-01-19T10:58:09.375Z,48.10
2019-01-19T11:00:38.851Z,49.43
2019-01-19T11:03:08.429Z,48.73
2019-01-19T11:05:37.853Z,50.53
2019-01-19T11:08:08.815Z,51.63
2019-01-19T11:10:38.345Z,52.60
2019-01-19T11:13:07.828Z,53.40
2019-01-19T11:15:37.269Z,57.87
2019-01-19T11:18:06.883Z,41.50
2019-01-19T11:20:36.411Z,43.77
2019-01-19T11:23:06.078Z,45.37
2019-01-19T11:25:36.279Z,44.60
2019-01-19T11:28:06.157Z,40.43
2019-01-19T11:30:35.575Z,35.93
2019-01-19T11:33:05.109Z,39.07
2019-01-19T11:35:34.709Z,38.80
2019-01-19T11:38:04.248Z,38.30
2019-01-19T11:40:38.609Z,42.57
2019-01-19T11:43:09.916Z,44.17
2019-01-19T11:45:39.856Z,46.33
2019-01-19T11:48:09.557Z,47.13
2019-01-19T11:50:39.089Z,42.97
2019-01-19T11:53:08.558Z,39.80
2019-01-19T11:55:38.118Z,36.07
2019-01-19T11:58:08.022Z,34.13
2019-01-19T12:00:39.600Z,32.73
2019-01-19T12:03:09.267Z,32.77
2019-01-19T12:05:39.836Z,31.93
2019-01-19T12:08:10.807Z,31.57
2019-01-19T12:10:40.354Z,28.40
2019-01-19T12:13:09.817Z,27.37
2019-01-19T12:15:39.293Z,27.73
2019-01-19T12:18:09.037Z,27.47
2019-01-19T12:20:44.248Z,28.73
2019-01-19T12:23:13.888Z,26.90
2019-01-19T12:25:43.287Z,25.90
2019-01-19T12:28:12.828Z,26.93
2019-01-19T12:30:42.523Z,24.43
2019-01-19T12:33:12.151Z,24.67
2019-01-19T12:35:41.555Z,26.70
2019-01-19T12:38:11.373Z,23.97
2019-01-19T12:40:40.870Z,24.30
2019-01-19T12:43:21.400Z,24.73
2019-01-19T12:46:02.724Z,23.43
2019-01-19T12:48:32.250Z,20.87
2019-01-19T12:51:03.817Z,20.57
2019-01-19T12:53:33.225Z,23.43
2019-01-19T12:56:02.664Z,21.03
2019-01-19T12:58:32.118Z,19.10
2019-01-19T13:01:01.703Z,19.43
2019-01-19T13:03:31.359Z,15.90
2019-01-19T13:06:41.219Z,17.00
2019-01-19T13:09:18.041Z,17.30
2019-01-19T13:12:23.021Z,15.70
2019-01-19T13:15:28.252Z,15.13
2019-01-19T13:18:41.524Z,15.80
2019-01-19T13:22:03.090Z,15.07
2019-01-19T13:25:22.511Z,14.20
2019-01-19T13:28:39.085Z,13.73
2019-01-19T13:31:53.140Z,14.20
2019-01-19T13:35:27.839Z,14.00
2019-01-19T13:38:55.838Z,14.97
2019-01-19T13:42:16.806Z,14.97
2019-01-19T13:45:05.532Z,16.37
2019-01-19T13:48:09.791Z,16.97
2019-01-19T13:51:02.455Z,17.40
2019-01-19T13:54:21.160Z,21.60
2019-01-19T13:57:43.736Z,20.07
2019-01-19T14:00:50.125Z,21.33
2019-01-19T14:04:15.549Z,24.50
2019-01-19T14:07:36.597Z,20.87
2019-01-19T14:10:37.758Z,20.40
2019-01-19T14:13:49.951Z,20.63
2019-01-19T14:16:39.661Z,22.93
2019-01-19T14:20:01.875Z,25.47
2019-01-19T14:23:24.811Z,23.57
2019-01-19T14:26:24.832Z,23.97
2019-01-19T14:29:36.660Z,26.23
2019-01-19T14:32:35.683Z,27.63
2019-01-19T14:35:38.432Z,25.80
2019-01-19T14:38:32.566Z,26.77
2019-01-19T14:41:38.974Z,28.37
2019-01-19T14:44:49.042Z,29.87
2019-01-19T14:47:38.725Z,27.87
2019-01-19T14:50:42.767Z,28.27
2019-01-19T14:53:58.703Z,30.40
2019-01-19T14:57:09.133Z,30.60
2019-01-19T15:00:11.318Z,30.63
2019-01-19T15:03:10.043Z,32.03
2019-01-19T15:06:29.195Z,32.37
2019-01-19T15:09:40.398Z,33.03
2019-01-19T15:12:43.927Z,32.90
2019-01-19T15:15:44.866Z,35.93
2019-01-19T15:18:52.325Z,44.13
2019-01-19T15:21:53.201Z,41.40
2019-01-19T15:25:18.462Z,36.73
2019-01-19T15:28:35.064Z,39.40
2019-01-19T15:31:32.167Z,38.83
2019-01-19T15:34:35.644Z,38.03
2019-01-19T15:37:45.702Z,37.73
2019-01-19T15:41:05.192Z,33.87
2019-01-19T15:44:18.865Z,33.97
2019-01-19T15:47:41.658Z,31.97
2019-01-19T15:51:04.860Z,32.27
2019-01-19T15:53:59.879Z,33.17
2019-01-19T15:57:05.811Z,36.40
2019-01-19T16:00:14.932Z,37.67
2019-01-19T16:03:14.148Z,34.83
2019-01-19T16:06:27.209Z,33.17
2019-01-19T16:09:42.674Z,36.80
2019-01-19T16:12:46.105Z,35.10
2019-01-19T16:15:59.310Z,33.47
2019-01-19T16:19:21.344Z,32.57
2019-01-19T16:22:25.516Z,33.67
2019-01-19T16:25:23.872Z,32.03
2019-01-19T16:28:24.772Z,31.60
2019-01-19T16:31:36.934Z,29.97
2019-01-19T16:34:43.893Z,31.00
2019-01-19T16:37:56.876Z,29.63
2019-01-19T16:41:10.576Z,30.37
2019-01-19T16:43:47.634Z,31.83
2019-01-19T16:47:01.173Z,32.33
2019-01-19T16:50:14.525Z,35.17
2019-01-19T16:53:12.614Z,31.17
2019-01-19T16:56:20.277Z,32.73
2019-01-19T16:59:21.058Z,33.23
2019-01-19T17:02:03.011Z,31.30
2019-01-19T17:05:14.882Z,30.27
2019-01-19T17:08:23.633Z,30.33
2019-01-19T17:11:32.290Z,31.27
2019-01-19T17:14:27.298Z,24.87
2019-01-19T17:17:34.751Z,23.90
2019-01-19T17:20:40.213Z,22.73
2019-01-19T17:23:31.190Z,21.47
2019-01-19T17:26:45.920Z,21.07
2019-01-19T17:29:58.401Z,22.43
2019-01-19T17:33:07.053Z,22.63
2019-01-19T17:36:13.454Z,22.93
2019-01-19T17:39:13.141Z,24.37
2019-01-19T17:42:03.197Z,21.23
2019-01-19T17:45:05.926Z,23.03
2019-01-19T17:47:56.984Z,22.53
2019-01-19T17:51:19.187Z,24.50
2019-01-19T17:54:15.476Z,22.47
2019-01-19T17:57:34.317Z,23.70
2019-01-19T18:00:44.607Z,24.47
2019-01-19T18:03:58.213Z,23.43
2019-01-19T18:06:52.121Z,22.07
2019-01-19T18:09:47.586Z,23.37
2019-01-19T18:13:09.477Z,23.27
2019-01-19T18:16:22.061Z,23.67
2019-01-19T18:19:30.664Z,24.73
2019-01-19T18:22:26.925Z,22.97
2019-01-19T18:25:43.065Z,23.63
2019-01-19T18:28:56.915Z,23.27
2019-01-19T18:32:00.768Z,21.73
2019-01-19T18:35:01.110Z,24.13
2019-01-19T18:38:10.256Z,23.37
2019-01-19T18:41:09.622Z,22.77
2019-01-19T18:44:25.946Z,22.87
2019-01-19T18:47:37.782Z,24.00
2019-01-19T18:50:59.510Z,25.70
2019-01-19T18:53:55.533Z,23.77
2019-01-19T18:57:04.199Z,25.53
2019-01-19T19:00:11.541Z,23.50
2019-01-19T19:03:20.143Z,25.63
2019-01-19T19:06:13.371Z,26.57
2019-01-19T19:09:18.259Z,25.67
2019-01-19T19:12:30.089Z,27.37
2019-01-19T19:15:35.997Z,24.17
2019-01-19T19:18:39.951Z,24.30
2019-01-19T19:21:39.422Z,24.90
2019-01-19T19:24:21.024Z,24.93
2019-01-19T19:27:27.654Z,24.73
2019-01-19T19:30:32.214Z,25.10
2019-01-19T19:33:34.188Z,25.00
2019-01-19T19:36:38.901Z,23.43
2019-01-19T19:39:50.774Z,25.40
2019-01-19T19:42:48.461Z,24.57
2019-01-19T19:45:54.281Z,24.53
2019-01-19T19:49:04.513Z,24.17
2019-01-19T19:52:05.463Z,25.87
2019-01-19T19:54:35.902Z,28.47
2019-01-19T19:57:06.054Z,28.43
2019-01-19T19:59:35.483Z,26.93
2019-01-19T20:02:05.182Z,26.70
2019-01-19T20:04:34.741Z,26.70
2019-01-19T20:07:04.480Z,26.50
2019-01-19T20:09:34.117Z,27.40
2019-01-19T20:12:09.766Z,24.90
2019-01-19T20:14:39.376Z,26.17
2019-01-19T20:17:09.006Z,27.70
2019-01-19T20:19:38.469Z,27.97
2019-01-19T20:22:08.104Z,30.47
2019-01-19T20:24:37.535Z,28.20
2019-01-19T20:27:06.931Z,26.90
2019-01-19T20:29:36.424Z,27.87
2019-01-19T20:32:06.024Z,29.00
2019-01-19T20:34:35.467Z,27.73
2019-01-19T20:37:05.089Z,29.53
2019-01-19T20:39:34.530Z,27.80
2019-01-19T20:42:04.019Z,28.37
2019-01-19T20:44:33.489Z,29.43
2019-01-19T20:47:02.943Z,26.57
2019-01-19T20:49:32.407Z,27.83
2019-01-19T20:52:01.847Z,28.57
2019-01-19T20:54:31.305Z,27.83
2019-01-19T20:57:00.790Z,27.70
2019-01-19T20:59:30.424Z,26.27
2019-01-19T21:01:59.890Z,26.17
2019-01-19T21:04:29.349Z,25.60
2019-01-19T21:06:59.034Z,27.43
2019-01-19T21:09:28.476Z,28.07
2019-01-19T21:11:57.878Z,23.63
2019-01-19T21:14:27.382Z,24.57
2019-01-19T21:16:56.936Z,27.33
2019-01-19T21:19:26.375Z,26.03
2019-01-19T21:21:55.844Z,26.17
2019-01-19T21:24:26.495Z,24.83
2019-01-19T21:26:55.946Z,26.90
2019-01-19T21:29:25.425Z,25.40
2019-01-19T21:31:54.952Z,23.87
2019-01-19T21:34:24.498Z,25.90
2019-01-19T21:36:53.938Z,24.73
2019-01-19T21:39:23.394Z,23.57
2019-01-19T21:41:52.899Z,25.63
2019-01-19T21:44:22.530Z,23.83
2019-01-19T21:46:51.928Z,22.17
2019-01-19T21:49:21.386Z,22.80
2019-01-19T21:51:51.064Z,22.17
2019-01-19T21:54:20.493Z,22.07
2019-01-19T21:56:49.894Z,22.83
2019-01-19T21:59:19.536Z,23.10
2019-01-19T22:01:49.083Z,25.53
2019-01-19T22:04:18.528Z,21.97
2019-01-19T22:06:48.026Z,23.00
2019-01-19T22:09:17.737Z,25.50
2019-01-19T22:11:47.338Z,22.70
2019-01-19T22:14:17.162Z,25.27
2019-01-19T22:16:46.888Z,25.60
2019-01-19T22:19:16.508Z,23.97
2019-01-19T22:21:46.151Z,24.47
2019-01-19T22:24:15.880Z,22.63
2019-01-19T22:26:49.910Z,22.80
2019-01-19T22:29:19.510Z,20.90
2019-01-19T22:31:49.105Z,22.37
2019-01-19T22:34:18.760Z,20.37
2019-01-19T22:36:48.371Z,22.20
2019-01-19T22:39:18.083Z,21.77
2019-01-19T22:41:47.727Z,21.73
2019-01-19T22:44:17.358Z,21.93
2019-01-19T22:46:47.067Z,22.00
2019-01-19T22:49:16.742Z,20.83
2019-01-19T22:51:47.030Z,26.33
2019-01-19T22:54:16.641Z,22.87
2019-01-19T22:56:46.601Z,23.60
2019-01-19T22:59:16.228Z,22.33
2019-01-19T23:01:51.515Z,23.83
2019-01-19T23:04:21.121Z,22.70
2019-01-19T23:06:50.752Z,21.97
2019-01-19T23:09:20.443Z,22.57
2019-01-19T23:11:50.138Z,22.93
2019-01-19T23:14:19.824Z,24.00
2019-01-19T23:16:49.557Z,24.70
2019-01-19T23:19:19.359Z,26.97
2019-01-19T23:21:49.573Z,26.57
2019-01-19T23:24:19.310Z,23.03
2019-01-19T23:26:49.793Z,23.27
2019-01-19T23:29:19.508Z,23.40
2019-01-19T23:31:48.954Z,23.37
2019-01-19T23:34:18.421Z,23.03
2019-01-19T23:36:47.926Z,24.53
2019-01-19T23:39:17.561Z,21.43
2019-01-19T23:41:46.968Z,22.43
2019-01-19T23:44:16.430Z,23.17
2019-01-19T23:46:45.961Z,22.57
2019-01-19T23:49:15.403Z,24.03
2019-01-19T23:51:44.798Z,22.67
2019-01-19T23:54:14.524Z,21.73
2019-01-19T23:56:44.003Z,21.93
2019-01-19T23:59:13.433Z,22.10
